createdAt,value
2023-05-03T00:02:13.006Z,4.88
2023-05-03T00:04:41.510Z,4.57
2023-05-03T00:07:09.992Z,4.43
2023-05-03T00:09:38.630Z,4.78
2023-05-03T00:12:08.369Z,5.35
2023-05-03T00:14:36.743Z,5.07
2023-05-03T00:17:05.143Z,4.60
2023-05-03T00:19:34.031Z,4.53
2023-05-03T00:22:03.790Z,4.72
2023-05-03T00:24:32.421Z,4.70
2023-05-03T00:27:00.854Z,4.85
2023-05-03T00:29:30.532Z,4.55
2023-05-03T00:32:00.230Z,4.53
2023-05-03T00:34:28.886Z,5.25
2023-05-03T00:36:57.488Z,4.47
2023-05-03T00:39:25.998Z,4.45
2023-05-03T00:41:58.024Z,5.20
2023-05-03T00:44:26.460Z,4.82
2023-05-03T00:46:56.771Z,4.70
2023-05-03T00:49:25.660Z,5.10
2023-05-03T00:51:54.705Z,4.97
2023-05-03T00:54:24.585Z,4.97
2023-05-03T00:56:53.684Z,4.80
2023-05-03T00:59:22.162Z,4.68
2023-05-03T01:01:51.709Z,4.80
2023-05-03T01:04:23.301Z,4.88
2023-05-03T01:07:04.293Z,4.75
2023-05-03T01:09:37.672Z,5.03
2023-05-03T01:12:20.453Z,4.93
2023-05-03T01:15:00.818Z,4.30
2023-05-03T01:17:30.693Z,5.05
2023-05-03T01:20:08.533Z,5.00
2023-05-03T01:22:44.397Z,4.57
2023-05-03T01:25:16.071Z,5.28
2023-05-03T01:27:44.557Z,4.05
2023-05-03T01:30:14.065Z,4.80
2023-05-03T01:32:51.128Z,4.30
2023-05-03T01:35:27.636Z,5.30
2023-05-03T01:37:57.580Z,5.22
2023-05-03T01:40:29.216Z,5.35
2023-05-03T01:42:58.754Z,4.28
2023-05-03T01:45:27.740Z,4.75
2023-05-03T01:47:57.975Z,4.55
2023-05-03T01:50:26.717Z,5.38
2023-05-03T01:52:55.047Z,4.90
2023-05-03T01:55:23.378Z,4.90
2023-05-03T01:57:53.162Z,4.68
2023-05-03T02:00:21.973Z,5.22
2023-05-03T02:02:50.417Z,5.20
2023-05-03T02:05:19.915Z,5.40
2023-05-03T02:07:48.259Z,4.93
2023-05-03T02:10:17.095Z,4.75
2023-05-03T02:12:46.011Z,5.50
2023-05-03T02:15:18.511Z,5.10
2023-05-03T02:17:47.415Z,6.15
2023-05-03T02:20:16.154Z,4.80
2023-05-03T02:22:44.602Z,5.65
2023-05-03T02:25:12.985Z,5.05
2023-05-03T02:27:41.351Z,4.82
2023-05-03T02:30:10.676Z,4.50
2023-05-03T02:32:45.344Z,5.43
2023-05-03T02:35:14.120Z,5.47
2023-05-03T02:37:42.485Z,5.95
2023-05-03T02:40:13.851Z,5.72
2023-05-03T02:42:44.337Z,5.40
2023-05-03T02:45:15.152Z,5.28
2023-05-03T02:47:45.066Z,5.55
2023-05-03T02:50:13.728Z,5.43
2023-05-03T02:52:42.808Z,5.60
2023-05-03T02:55:11.581Z,5.53
2023-05-03T02:57:42.641Z,5.80
2023-05-03T03:00:15.267Z,6.43
2023-05-03T03:02:45.865Z,5.90
2023-05-03T03:05:14.410Z,5.72
2023-05-03T03:07:49.711Z,6.30
2023-05-03T03:10:20.051Z,5.88
2023-05-03T03:12:48.410Z,5.43
2023-05-03T03:15:25.650Z,5.25
2023-05-03T03:17:57.738Z,5.43
2023-05-03T03:20:27.507Z,6.15
2023-05-03T03:22:56.172Z,6.22
2023-05-03T03:25:24.875Z,5.90
2023-05-03T03:27:54.217Z,5.82
2023-05-03T03:30:23.040Z,5.70
2023-05-03T03:33:07.994Z,6.03
2023-05-03T03:35:41.553Z,5.90
2023-05-03T03:38:11.681Z,6.30
2023-05-03T03:40:47.778Z,6.35
2023-05-03T03:43:16.956Z,6.63
2023-05-03T03:45:45.650Z,6.13
2023-05-03T03:48:17.398Z,6.22
2023-05-03T03:50:46.514Z,7.15
2023-05-03T03:53:15.715Z,6.13
2023-05-03T03:55:44.962Z,6.72
2023-05-03T03:58:15.560Z,6.10
2023-05-03T04:00:44.798Z,5.70
2023-05-03T04:03:19.094Z,6.35
2023-05-03T04:05:48.556Z,6.40
2023-05-03T04:08:16.909Z,7.18
2023-05-03T04:10:45.888Z,6.60
2023-05-03T04:13:14.594Z,7.03
2023-05-03T04:15:43.365Z,6.85
2023-05-03T04:18:12.116Z,7.85
2023-05-03T04:20:44.314Z,7.80
2023-05-03T04:23:12.840Z,7.60
2023-05-03T04:25:48.281Z,7.53
2023-05-03T04:28:19.178Z,7.13
2023-05-03T04:30:49.816Z,7.03
2023-05-03T04:33:23.681Z,7.43
2023-05-03T04:35:56.173Z,8.10
2023-05-03T04:38:24.703Z,7.22
2023-05-03T04:40:54.347Z,7.32
2023-05-03T04:43:24.930Z,6.50
2023-05-03T04:45:53.584Z,7.00
2023-05-03T04:48:25.469Z,7.55
2023-05-03T04:50:53.929Z,7.45
2023-05-03T04:53:25.702Z,7.25
2023-05-03T04:56:03.136Z,8.15
2023-05-03T04:58:34.508Z,8.07
2023-05-03T05:01:03.605Z,7.15
2023-05-03T05:03:32.851Z,8.32
2023-05-03T05:06:06.944Z,6.82
2023-05-03T05:08:37.434Z,7.82
2023-05-03T05:11:08.136Z,7.20
2023-05-03T05:13:36.981Z,7.80
2023-05-03T05:16:06.250Z,7.53
2023-05-03T05:18:36.047Z,8.38
2023-05-03T05:21:07.583Z,8.02
2023-05-03T05:23:39.007Z,7.90
2023-05-03T05:26:07.534Z,7.65
2023-05-03T05:28:35.959Z,8.88
2023-05-03T05:31:04.944Z,7.82
2023-05-03T05:33:33.939Z,7.90
2023-05-03T05:36:03.580Z,8.32
2023-05-03T05:38:33.536Z,8.38
2023-05-03T05:41:05.295Z,7.13
2023-05-03T05:43:35.204Z,8.20
2023-05-03T05:46:04.288Z,8.05
2023-05-03T05:48:33.079Z,7.28
2023-05-03T05:51:03.083Z,7.57
2023-05-03T05:53:31.573Z,7.65
2023-05-03T05:56:06.076Z,7.32
2023-05-03T05:58:37.228Z,7.47
2023-05-03T06:01:05.823Z,6.97
2023-05-03T06:03:37.725Z,7.38
2023-05-03T06:06:08.892Z,6.13
2023-05-03T06:08:37.991Z,6.10
2023-05-03T06:11:08.749Z,6.43
2023-05-03T06:13:38.495Z,5.90
2023-05-03T06:16:08.687Z,5.80
2023-05-03T06:18:37.226Z,6.68
2023-05-03T06:21:06.045Z,6.03
2023-05-03T06:23:35.200Z,7.05
2023-05-03T06:26:04.992Z,6.03
2023-05-03T06:28:35.883Z,5.95
2023-05-03T06:31:04.420Z,6.40
2023-05-03T06:33:34.324Z,6.47
2023-05-03T06:36:02.922Z,6.35
2023-05-03T06:38:31.338Z,6.10
2023-05-03T06:40:59.730Z,6.55
2023-05-03T06:43:28.141Z,5.95
2023-05-03T06:46:04.294Z,6.32
2023-05-03T06:48:32.758Z,6.10
2023-05-03T06:51:01.294Z,6.20
2023-05-03T06:53:29.953Z,6.18
2023-05-03T06:55:58.539Z,6.32
2023-05-03T06:58:26.852Z,6.20
2023-05-03T07:00:55.348Z,6.18
2023-05-03T07:03:25.866Z,6.50
2023-05-03T07:05:54.315Z,7.07
2023-05-03T07:08:23.018Z,7.18
2023-05-03T07:10:51.578Z,6.78
2023-05-03T07:13:19.942Z,8.55
2023-05-03T07:15:48.659Z,6.15
2023-05-03T07:18:17.265Z,5.80
2023-05-03T07:20:47.396Z,6.38
2023-05-03T07:23:15.990Z,5.60
2023-05-03T07:25:44.751Z,6.22
2023-05-03T07:28:13.420Z,6.10
2023-05-03T07:30:41.911Z,6.35
2023-05-03T07:33:10.569Z,5.68
2023-05-03T07:35:39.017Z,6.15
2023-05-03T07:38:08.872Z,5.65
2023-05-03T07:40:37.495Z,9.75
2023-05-03T07:43:06.187Z,6.18
2023-05-03T07:45:35.039Z,6.25
2023-05-03T07:48:04.170Z,5.82
2023-05-03T07:50:32.995Z,5.50
2023-05-03T07:53:01.424Z,5.38
2023-05-03T07:55:32.827Z,4.88
2023-05-03T07:58:01.438Z,5.18
2023-05-03T08:00:29.855Z,5.22
2023-05-03T08:02:58.668Z,5.05
2023-05-03T08:05:27.394Z,5.95
2023-05-03T08:07:56.077Z,5.50
2023-05-03T08:10:24.626Z,6.18
2023-05-03T08:12:54.340Z,10.60
2023-05-03T08:15:22.682Z,4.78
2023-05-03T08:17:51.260Z,4.80
2023-05-03T08:20:20.855Z,4.70
2023-05-03T08:22:49.191Z,4.75
2023-05-03T08:25:18.789Z,4.68
2023-05-03T08:27:47.489Z,4.93
2023-05-03T08:30:17.721Z,4.55
2023-05-03T08:32:46.777Z,5.43
2023-05-03T08:35:16.680Z,5.57
2023-05-03T08:37:46.053Z,4.57
2023-05-03T08:40:16.584Z,4.97
2023-05-03T08:42:46.642Z,4.97
2023-05-03T08:45:17.434Z,4.70
2023-05-03T08:47:47.188Z,5.00
2023-05-03T08:50:18.523Z,4.85
2023-05-03T08:52:46.915Z,4.70
2023-05-03T08:55:15.337Z,4.88
2023-05-03T08:57:43.808Z,4.70
2023-05-03T09:00:13.428Z,5.35
2023-05-03T09:02:43.552Z,6.10
2023-05-03T09:05:34.948Z,5.00
2023-05-03T09:08:05.246Z,5.03
2023-05-03T09:10:35.358Z,9.05
2023-05-03T09:13:03.836Z,5.03
2023-05-03T09:15:32.402Z,4.90
2023-05-03T09:18:20.977Z,4.60
2023-05-03T09:20:53.040Z,4.82
2023-05-03T09:23:31.702Z,4.10
2023-05-03T09:26:01.118Z,4.82
2023-05-03T09:28:29.700Z,5.22
2023-05-03T09:31:08.082Z,4.55
2023-05-03T09:33:37.900Z,4.75
2023-05-03T09:36:07.216Z,4.80
2023-05-03T09:38:37.532Z,5.93
2023-05-03T09:41:06.800Z,4.45
2023-05-03T09:43:36.265Z,4.60
2023-05-03T09:46:12.356Z,5.18
2023-05-03T09:48:43.301Z,4.30
2023-05-03T09:51:12.934Z,4.32
2023-05-03T09:53:42.391Z,4.53
2023-05-03T09:56:13.269Z,4.35
2023-05-03T09:58:43.614Z,4.70
2023-05-03T10:01:13.360Z,4.57
2023-05-03T10:03:46.626Z,4.85
2023-05-03T10:06:25.577Z,5.15
2023-05-03T10:08:56.045Z,4.55
2023-05-03T10:11:28.357Z,4.63
2023-05-03T10:13:57.398Z,5.00
2023-05-03T10:16:30.407Z,4.35
2023-05-03T10:19:12.201Z,4.43
2023-05-03T10:21:56.638Z,4.57
2023-05-03T10:24:25.263Z,4.75
2023-05-03T10:26:53.656Z,6.55
2023-05-03T10:29:48.896Z,4.57
2023-05-03T10:32:34.873Z,4.97
2023-05-03T10:35:09.142Z,4.78
2023-05-03T10:37:38.202Z,4.78
2023-05-03T10:40:13.458Z,4.70
2023-05-03T10:42:45.731Z,4.80
2023-05-03T10:45:26.588Z,4.65
2023-05-03T10:48:20.463Z,4.82
2023-05-03T10:50:51.589Z,5.53
2023-05-03T10:53:40.039Z,5.05
2023-05-03T10:56:10.144Z,4.65
2023-05-03T10:58:41.006Z,5.78
2023-05-03T11:01:11.868Z,4.93
2023-05-03T11:03:51.207Z,4.63
2023-05-03T11:06:34.791Z,4.47
2023-05-03T11:09:06.506Z,4.70
2023-05-03T11:11:37.477Z,4.53
2023-05-03T11:14:06.611Z,4.95
2023-05-03T11:16:36.744Z,4.75
2023-05-03T11:19:06.631Z,4.72
2023-05-03T11:21:36.663Z,4.90
2023-05-03T11:24:05.269Z,5.20
2023-05-03T11:26:36.880Z,4.55
2023-05-03T11:29:06.012Z,4.90
2023-05-03T11:31:35.594Z,4.90
2023-05-03T11:34:04.164Z,4.93
2023-05-03T11:36:32.956Z,4.72
2023-05-03T11:39:05.608Z,4.68
2023-05-03T11:41:34.091Z,4.28
2023-05-03T11:44:15.353Z,5.13
2023-05-03T11:46:48.978Z,4.63
2023-05-03T11:49:19.292Z,5.57
2023-05-03T11:51:51.865Z,5.40
2023-05-03T11:54:26.144Z,5.70
2023-05-03T11:56:57.802Z,12.10
2023-05-03T11:59:37.879Z,5.50
2023-05-03T12:02:09.189Z,4.40
2023-05-03T12:04:41.448Z,5.18
2023-05-03T12:07:11.869Z,4.63
2023-05-03T12:09:45.138Z,4.50
2023-05-03T12:12:24.425Z,4.82
2023-05-03T12:14:59.333Z,5.40
2023-05-03T12:17:37.391Z,5.43
2023-05-03T12:21:05.174Z,5.40
2023-05-03T12:23:09.835Z,4.78
2023-05-03T12:25:43.878Z,12.45
2023-05-03T12:28:20.209Z,8.38
2023-05-03T12:30:52.940Z,4.68
2023-05-03T12:33:23.274Z,4.57
2023-05-03T12:35:54.188Z,5.43
2023-05-03T12:38:25.083Z,5.57
2023-05-03T12:40:55.588Z,5.55
2023-05-03T12:43:24.190Z,4.93
2023-05-03T12:46:07.630Z,4.78
2023-05-03T12:48:42.283Z,4.55
2023-05-03T12:53:47.890Z,4.95
2023-05-03T12:56:18.043Z,5.20
2023-05-03T13:02:17.342Z,4.78
2023-05-03T13:06:48.274Z,4.22
2023-05-03T13:09:21.394Z,4.88
2023-05-03T13:11:54.783Z,4.80
2023-05-03T13:14:23.214Z,5.32
2023-05-03T13:16:51.931Z,5.45
2023-05-03T13:19:20.660Z,5.28
2023-05-03T13:21:49.459Z,5.70
2023-05-03T13:24:17.906Z,5.32
2023-05-03T13:26:46.390Z,5.72
2023-05-03T13:29:16.142Z,5.20
2023-05-03T13:31:44.495Z,5.25
2023-05-03T13:34:13.146Z,5.00
2023-05-03T13:36:41.484Z,4.90
2023-05-03T13:39:10.296Z,4.80
2023-05-03T13:41:40.793Z,4.75
2023-05-03T13:44:09.691Z,5.72
2023-05-03T13:46:41.699Z,5.10
2023-05-03T13:49:10.685Z,5.32
2023-05-03T13:51:39.129Z,5.07
2023-05-03T13:54:08.054Z,5.10
2023-05-03T13:56:37.813Z,4.93
2023-05-03T13:59:09.060Z,4.82
2023-05-03T14:01:39.187Z,4.80
2023-05-03T14:04:08.126Z,5.05
2023-05-03T14:06:40.063Z,4.97
2023-05-03T14:09:09.807Z,5.05
2023-05-03T14:11:38.817Z,4.85
2023-05-03T14:14:07.453Z,4.82
2023-05-03T14:16:41.512Z,4.75
2023-05-03T14:19:12.333Z,4.80
2023-05-03T14:21:43.024Z,4.43
2023-05-03T14:24:11.475Z,4.00
2023-05-03T14:26:39.855Z,4.65
2023-05-03T14:29:08.403Z,3.67
2023-05-03T14:31:36.965Z,4.07
2023-05-03T14:34:05.874Z,3.83
2023-05-03T14:36:38.440Z,4.07
2023-05-03T14:39:07.079Z,4.15
2023-05-03T14:41:38.464Z,4.63
2023-05-03T14:44:07.721Z,4.70
2023-05-03T14:46:36.254Z,4.60
2023-05-03T14:49:05.023Z,3.85
2023-05-03T14:51:35.170Z,4.00
2023-05-03T14:54:03.980Z,3.40
2023-05-03T14:56:32.855Z,3.33
2023-05-03T14:59:01.865Z,3.80
2023-05-03T15:01:30.456Z,3.70
2023-05-03T15:03:58.879Z,4.00
2023-05-03T15:06:28.637Z,3.75
2023-05-03T15:08:59.595Z,4.25
2023-05-03T15:11:28.610Z,4.25
2023-05-03T15:13:57.006Z,5.35
2023-05-03T15:16:25.950Z,4.55
2023-05-03T15:18:54.359Z,4.10
2023-05-03T15:21:23.714Z,3.85
2023-05-03T15:23:53.856Z,4.47
2023-05-03T15:26:24.723Z,3.83
2023-05-03T15:28:53.141Z,3.63
2023-05-03T15:31:22.802Z,4.60
2023-05-03T15:33:51.198Z,4.32
2023-05-03T15:36:19.601Z,4.60
2023-05-03T15:38:48.390Z,4.05
2023-05-03T15:41:16.739Z,4.32
2023-05-03T15:43:47.881Z,4.13
2023-05-03T15:46:16.562Z,4.25
2023-05-03T15:48:44.979Z,4.35
2023-05-03T15:51:13.331Z,3.83
2023-05-03T15:53:41.888Z,3.95
2023-05-03T15:56:11.326Z,4.25
2023-05-03T15:58:39.790Z,4.25
2023-05-03T16:01:09.607Z,4.70
2023-05-03T16:03:38.054Z,4.47
2023-05-03T16:06:06.813Z,3.95
2023-05-03T16:08:35.422Z,4.63
2023-05-03T16:11:03.863Z,4.65
2023-05-03T16:13:32.440Z,4.13
2023-05-03T16:16:02.539Z,3.83
2023-05-03T16:18:32.641Z,4.20
2023-05-03T16:21:02.131Z,4.18
2023-05-03T16:23:30.820Z,4.28
2023-05-03T16:25:59.195Z,4.20
2023-05-03T16:28:27.564Z,4.10
2023-05-03T16:30:56.481Z,4.32
2023-05-03T16:33:25.231Z,4.10
2023-05-03T16:35:55.373Z,3.63
2023-05-03T16:38:25.263Z,4.10
2023-05-03T16:40:53.690Z,3.53
2023-05-03T16:43:24.225Z,3.60
2023-05-03T16:46:08.729Z,3.97
2023-05-03T16:48:37.288Z,3.92
2023-05-03T16:51:07.362Z,4.00
2023-05-03T16:53:36.636Z,3.80
2023-05-03T16:56:05.954Z,3.80
2023-05-03T16:58:41.807Z,3.50
2023-05-03T17:01:10.477Z,3.90
2023-05-03T17:03:38.968Z,3.88
2023-05-03T17:06:12.609Z,3.80
2023-05-03T17:08:42.740Z,3.40
2023-05-03T17:11:14.715Z,3.92
2023-05-03T17:13:43.379Z,3.80
2023-05-03T17:16:18.198Z,4.22
2023-05-03T17:18:50.242Z,3.60
2023-05-03T17:21:20.683Z,3.65
2023-05-03T17:23:49.051Z,3.75
2023-05-03T17:26:17.727Z,3.85
2023-05-03T17:28:49.364Z,3.65
2023-05-03T17:31:19.551Z,3.53
2023-05-03T17:33:47.969Z,3.95
2023-05-03T17:36:16.870Z,3.55
2023-05-03T17:39:00.745Z,3.40
2023-05-03T17:41:32.443Z,3.47
2023-05-03T17:44:01.989Z,3.78
2023-05-03T17:46:30.591Z,3.85
2023-05-03T17:48:59.724Z,5.70
2023-05-03T17:51:28.508Z,3.65
2023-05-03T17:53:58.200Z,3.75
2023-05-03T17:56:26.550Z,4.22
2023-05-03T17:58:55.190Z,3.50
2023-05-03T18:01:23.755Z,3.10
2023-05-03T18:03:52.296Z,3.08
2023-05-03T18:06:21.215Z,3.55
2023-05-03T18:08:50.106Z,3.85
2023-05-03T18:11:19.969Z,3.50
2023-05-03T18:13:50.869Z,3.80
2023-05-03T18:16:22.890Z,3.60
2023-05-03T18:18:52.404Z,3.33
2023-05-03T18:21:22.232Z,3.45
2023-05-03T18:23:54.536Z,3.88
2023-05-03T18:26:25.318Z,3.60
2023-05-03T18:28:53.852Z,4.07
2023-05-03T18:31:22.499Z,3.90
2023-05-03T18:33:51.207Z,4.63
2023-05-03T18:36:19.563Z,4.55
2023-05-03T18:38:48.541Z,4.57
2023-05-03T18:41:17.478Z,4.50
2023-05-03T18:43:47.757Z,4.78
2023-05-03T18:46:18.411Z,4.43
2023-05-03T18:48:56.370Z,4.75
2023-05-03T18:51:24.900Z,4.38
2023-05-03T18:53:53.563Z,4.63
2023-05-03T18:56:21.936Z,3.92
2023-05-03T18:58:53.337Z,3.97
2023-05-03T19:01:22.633Z,4.13
2023-05-03T19:03:51.096Z,4.00
2023-05-03T19:06:19.737Z,4.53
2023-05-03T19:08:49.452Z,4.05
2023-05-03T19:11:18.347Z,4.00
2023-05-03T19:13:47.240Z,4.38
2023-05-03T19:16:19.668Z,3.88
2023-05-03T19:18:51.062Z,4.20
2023-05-03T19:21:20.394Z,4.00
2023-05-03T19:23:49.071Z,4.10
2023-05-03T19:26:18.439Z,4.50
2023-05-03T19:28:47.160Z,4.00
2023-05-03T19:31:17.709Z,3.88
2023-05-03T19:33:46.351Z,4.15
2023-05-03T19:36:14.952Z,4.35
2023-05-03T19:38:43.498Z,4.40
2023-05-03T19:41:12.795Z,3.88
2023-05-03T19:43:42.078Z,4.00
2023-05-03T19:46:12.879Z,3.92
2023-05-03T19:48:42.944Z,4.13
2023-05-03T19:51:14.352Z,3.83
2023-05-03T19:53:42.820Z,3.85
2023-05-03T19:56:12.801Z,4.60
2023-05-03T19:58:41.528Z,4.00
2023-05-03T20:01:09.955Z,4.82
2023-05-03T20:03:38.773Z,4.55
2023-05-03T20:06:09.043Z,4.15
2023-05-03T20:08:37.523Z,4.47
2023-05-03T20:11:06.268Z,4.68
2023-05-03T20:13:34.856Z,3.70
2023-05-03T20:16:05.864Z,3.70
2023-05-03T20:18:34.407Z,3.95
2023-05-03T20:21:03.500Z,4.10
2023-05-03T20:23:33.756Z,4.05
2023-05-03T20:26:02.497Z,3.95
2023-05-03T20:28:32.279Z,4.90
2023-05-03T20:31:00.963Z,4.65
2023-05-03T20:33:29.337Z,4.40
2023-05-03T20:35:57.702Z,4.60
2023-05-03T20:38:26.117Z,4.13
2023-05-03T20:40:55.915Z,4.15
2023-05-03T20:43:24.280Z,4.43
2023-05-03T20:45:53.320Z,4.43
2023-05-03T20:48:22.421Z,4.05
2023-05-03T20:50:50.944Z,4.25
2023-05-03T20:53:19.294Z,4.68
2023-05-03T20:55:47.673Z,4.20
2023-05-03T20:58:17.484Z,4.40
2023-05-03T21:00:45.879Z,4.57
2023-05-03T21:03:15.260Z,4.80
2023-05-03T21:05:43.940Z,4.60
2023-05-03T21:08:12.302Z,5.25
2023-05-03T21:10:40.653Z,4.78
2023-05-03T21:13:09.098Z,4.15
2023-05-03T21:15:39.064Z,4.70
2023-05-03T21:18:07.481Z,4.63
2023-05-03T21:20:36.870Z,4.90
2023-05-03T21:23:05.827Z,4.72
2023-05-03T21:25:34.326Z,4.82
2023-05-03T21:28:02.787Z,5.28
2023-05-03T21:30:31.351Z,4.97
2023-05-03T21:33:01.439Z,4.68
2023-05-03T21:35:29.921Z,4.70
2023-05-03T21:37:58.221Z,4.82
2023-05-03T21:40:27.070Z,4.65
2023-05-03T21:42:55.516Z,4.53
2023-05-03T21:45:24.146Z,4.90
2023-05-03T21:47:53.570Z,4.40
2023-05-03T21:50:23.730Z,4.30
2023-05-03T21:52:52.081Z,4.57
2023-05-03T21:55:20.794Z,4.35
2023-05-03T21:57:49.437Z,4.68
2023-05-03T22:00:20.666Z,4.70
2023-05-03T22:02:49.955Z,4.70
2023-05-03T22:05:18.740Z,4.75
2023-05-03T22:07:50.392Z,4.70
2023-05-03T22:10:19.049Z,4.78
2023-05-03T22:12:47.807Z,4.40
2023-05-03T22:15:16.862Z,4.75
2023-05-03T22:17:45.360Z,4.57
2023-05-03T22:20:14.225Z,4.20
2023-05-03T22:22:42.623Z,5.20
2023-05-03T22:25:22.761Z,4.40
2023-05-03T22:27:52.171Z,4.82
2023-05-03T22:30:21.130Z,4.93
2023-05-03T22:32:49.667Z,4.50
2023-05-03T22:35:18.411Z,4.97
2023-05-03T22:37:46.817Z,4.88
2023-05-03T22:40:16.601Z,4.93
2023-05-03T22:42:45.034Z,5.47
2023-05-03T22:45:13.673Z,4.85
2023-05-03T22:47:43.610Z,5.30
2023-05-03T22:50:12.688Z,5.47
2023-05-03T22:52:41.614Z,4.70
2023-05-03T22:55:11.065Z,4.85
2023-05-03T22:57:40.852Z,5.20
2023-05-03T23:00:11.415Z,5.43
2023-05-03T23:02:39.948Z,5.03
2023-05-03T23:05:10.332Z,5.00
2023-05-03T23:07:38.766Z,5.10
2023-05-03T23:10:08.778Z,5.32
2023-05-03T23:12:37.290Z,5.25
2023-05-03T23:15:08.325Z,5.10
2023-05-03T23:17:36.779Z,5.10
2023-05-03T23:20:06.505Z,4.80
2023-05-03T23:22:35.193Z,5.43
2023-05-03T23:25:03.552Z,5.95
2023-05-03T23:27:32.169Z,5.93
2023-05-03T23:30:01.153Z,5.57
2023-05-03T23:32:31.624Z,5.78
2023-05-03T23:35:01.038Z,5.40
2023-05-03T23:37:29.452Z,5.45
2023-05-03T23:39:59.192Z,6.00
2023-05-03T23:42:28.034Z,5.00
2023-05-03T23:44:56.664Z,5.85
2023-05-03T23:47:25.342Z,5.68
2023-05-03T23:49:55.336Z,5.75
2023-05-03T23:52:23.753Z,5.88
2023-05-03T23:54:53.316Z,6.22
2023-05-03T23:57:22.047Z,5.72
2023-05-03T23:59:50.454Z,6.28
